Time;durP1;ratioP1;P1;durP2;ratioP2;P2;SDS_P1;SDS_P2;PMS_P1;PMS_P2;Temp;Humidity;BMP_temperature;BMP_pressure;BME280_temperature;BME280_humidity;BME280_pressure;Samples;Min_cycle;Max_cycle;Signal;HPM_P1;HPM_P2
2022/05/12 00:00:36;;;;;;;6.32;3.88;;;21.50;48.20;;;;;;4993991;28;20436;-72
2022/05/12 00:03:04;;;;;;;4.80;2.88;;;21.50;48.20;;;;;;4995056;28;20019;-71
2022/05/12 00:05:30;;;;;;;9.50;3.78;;;21.60;47.20;;;;;;4995146;28;20057;-70
2022/05/12 00:07:58;;;;;;;4.13;3.05;;;21.60;47.10;;;;;;4994858;28;20027;-71
2022/05/12 00:10:24;;;;;;;8.10;3.28;;;21.50;47.60;;;;;;4994721;28;20084;-71
2022/05/12 00:12:51;;;;;;;4.18;3.22;;;21.50;47.50;;;;;;4994957;28;20033;-71
2022/05/12 00:15:20;;;;;;;3.47;2.67;;;21.50;47.40;;;;;;4994737;28;20022;-71
2022/05/12 00:17:46;;;;;;;3.28;2.70;;;21.50;46.60;;;;;;4994498;28;20033;-71
2022/05/12 00:20:13;;;;;;;3.92;2.47;;;21.50;46.80;;;;;;4994680;28;20022;-71
2022/05/12 00:22:38;;;;;;;3.95;3.17;;;21.40;46.80;;;;;;5024867;23;20690;-71
2022/05/12 00:25:10;;;;;;;5.93;3.03;;;21.30;47.20;;;;;;5033903;28;20030;-72
2022/05/12 00:27:36;;;;;;;4.20;2.65;;;21.20;47.10;;;;;;5033641;28;20040;-70
2022/05/12 00:30:01;;;;;;;6.00;3.63;;;21.10;47.70;;;;;;5033838;28;20029;-69
2022/05/12 00:32:27;;;;;;;6.97;3.10;;;21.10;47.70;;;;;;5033685;28;20025;-69
2022/05/12 00:34:52;;;;;;;6.30;2.88;;;21.00;47.60;;;;;;5033613;28;20113;-69
2022/05/12 00:37:18;;;;;;;7.40;3.00;;;21.10;47.20;;;;;;5033417;28;20384;-70
2022/05/12 00:39:43;;;;;;;6.25;2.80;;;21.10;47.40;;;;;;5033602;28;20080;-70
2022/05/12 00:42:09;;;;;;;10.40;3.38;;;21.10;46.60;;;;;;5032395;28;20021;-70
2022/05/12 00:44:34;;;;;;;10.70;2.75;;;21.20;46.30;;;;;;5029685;28;20018;-69
2022/05/12 00:47:00;;;;;;;5.07;2.60;;;21.20;46.50;;;;;;5015568;28;20093;-70
2022/05/12 00:49:27;;;;;;;7.78;3.42;;;21.20;46.30;;;;;;5015438;28;20035;-70
2022/05/12 00:52:02;;;;;;;5.78;2.72;;;21.20;46.00;;;;;;5033568;28;20413;-69
2022/05/12 00:54:46;;;;;;;5.22;2.70;;;21.20;45.90;;;;;;5033281;28;20583;-70
2022/05/12 00:57:22;;;;;;;4.00;2.47;;;21.20;45.70;;;;;;5033100;28;20514;-69
2022/05/12 00:59:48;;;;;;;7.55;2.95;;;21.10;45.90;;;;;;5033147;28;20029;-68
2022/05/12 01:02:17;;;;;;;9.02;2.80;;;21.20;46.20;;;;;;5032989;28;20025;-69
2022/05/12 01:04:44;;;;;;;6.00;2.33;;;21.20;45.50;;;;;;5033166;28;20108;-68
2022/05/12 01:07:10;;;;;;;5.32;2.60;;;21.20;45.70;;;;;;5033021;28;20033;-70
2022/05/12 01:09:36;;;;;;;6.97;2.45;;;21.20;45.50;;;;;;5033064;28;20079;-70
2022/05/12 01:12:02;;;;;;;3.60;2.65;;;21.10;45.40;;;;;;5033060;28;20024;-70
2022/05/12 01:14:28;;;;;;;8.20;3.42;;;21.10;45.50;;;;;;5015043;28;20544;-70
2022/05/12 01:16:57;;;;;;;9.38;3.05;;;21.10;45.50;;;;;;5033094;28;20029;-70
2022/05/12 01:19:29;;;;;;;7.03;2.40;;;21.10;45.40;;;;;;5032769;28;20021;-70
2022/05/12 01:21:57;;;;;;;10.55;2.53;;;21.10;45.60;;;;;;5032927;28;20086;-70
2022/05/12 01:24:29;;;;;;;4.95;2.78;;;21.00;45.90;;;;;;5032734;28;20439;-68
2022/05/12 01:26:55;;;;;;;6.18;2.40;;;21.00;46.20;;;;;;5032775;28;20054;-69
2022/05/12 01:29:21;;;;;;;5.03;2.60;;;21.00;46.00;;;;;;5014714;28;20495;-69
2022/05/12 01:31:47;;;;;;;3.60;2.63;;;20.90;46.70;;;;;;5014902;28;20026;-71
2022/05/12 01:34:13;;;;;;;6.15;2.53;;;20.90;46.10;;;;;;5032676;28;20033;-69
2022/05/12 01:36:39;;;;;;;3.83;2.58;;;20.80;46.10;;;;;;5029864;28;20256;-69
2022/05/12 01:39:07;;;;;;;6.82;2.40;;;20.80;46.40;;;;;;5012588;28;20482;-70
2022/05/12 01:41:32;;;;;;;7.57;2.53;;;20.70;46.60;;;;;;5012682;28;20571;-70
2022/05/12 01:44:00;;;;;;;5.90;2.72;;;20.60;46.50;;;;;;4994954;28;20116;-70
2022/05/12 01:46:26;;;;;;;7.68;3.15;;;20.60;46.90;;;;;;5012551;28;20022;-71
2022/05/12 01:48:51;;;;;;;9.05;2.55;;;20.50;47.00;;;;;;5012301;28;20033;-70
2022/05/12 01:51:17;;;;;;;7.68;2.80;;;20.50;47.00;;;;;;5012519;28;20034;-70
2022/05/12 01:53:42;;;;;;;5.53;2.70;;;20.40;47.00;;;;;;5012690;28;20026;-71
2022/05/12 01:56:08;;;;;;;5.05;2.78;;;20.40;47.30;;;;;;5012460;28;20467;-71
2022/05/12 01:58:34;;;;;;;6.25;3.10;;;20.40;47.20;;;;;;5012236;28;20518;-70
2022/05/12 02:01:00;;;;;;;6.53;2.50;;;20.30;47.20;;;;;;5012380;28;20526;-71
2022/05/12 02:03:25;;;;;;;3.95;2.63;;;20.30;47.60;;;;;;4994695;28;20057;-69
2022/05/12 02:05:51;;;;;;;5.28;2.58;;;20.20;48.50;;;;;;5012321;28;20022;-71
2022/05/12 02:08:18;;;;;;;4.07;2.40;;;20.10;47.80;;;;;;5012015;28;20495;-71
2022/05/12 02:10:47;;;;;;;3.60;2.58;;;20.20;47.70;;;;;;5012289;28;20112;-71
2022/05/12 02:13:14;;;;;;;3.58;2.88;;;20.20;48.20;;;;;;5011961;28;20030;-71
2022/05/12 02:15:41;;;;;;;3.55;2.45;;;20.20;47.90;;;;;;5011788;28;20045;-70
2022/05/12 02:18:08;;;;;;;4.90;2.70;;;20.20;47.90;;;;;;5011989;28;20026;-70
2022/05/12 02:20:34;;;;;;;5.00;3.10;;;20.20;47.40;;;;;;5012151;28;20025;-70
2022/05/12 02:22:59;;;;;;;6.88;2.92;;;20.20;48.00;;;;;;5011936;28;20038;-70
2022/05/12 02:25:25;;;;;;;3.10;2.38;;;20.30;47.40;;;;;;5012222;28;20431;-70
2022/05/12 02:27:52;;;;;;;7.05;2.63;;;20.50;47.30;;;;;;5011771;28;20435;-70
2022/05/12 02:30:21;;;;;;;7.35;2.88;;;20.50;47.00;;;;;;5012054;28;20030;-70
2022/05/12 02:32:47;;;;;;;3.65;2.20;;;20.50;46.50;;;;;;5012137;28;20033;-71
2022/05/12 02:35:14;;;;;;;5.35;2.45;;;20.70;47.00;;;;;;5011924;28;20026;-70
2022/05/12 02:37:40;;;;;;;4.57;2.25;;;20.80;46.30;;;;;;5011768;28;20105;-70
2022/05/12 02:40:07;;;;;;;6.45;2.50;;;20.90;46.00;;;;;;5012015;28;20105;-69
2022/05/12 02:42:33;;;;;;;4.65;2.40;;;20.90;46.00;;;;;;4994190;28;20049;-69
2022/05/12 02:44:58;;;;;;;4.22;2.17;;;20.80;46.70;;;;;;5011937;28;20059;-69
2022/05/12 02:47:24;;;;;;;5.03;2.45;;;20.70;46.40;;;;;;4993991;28;20534;-70
2022/05/12 02:49:49;;;;;;;6.38;2.63;;;20.70;46.70;;;;;;5011764;28;20026;-71
2022/05/12 02:52:15;;;;;;;7.25;2.90;;;20.60;46.80;;;;;;5011788;28;20033;-70
2022/05/12 02:54:41;;;;;;;3.90;2.40;;;20.50;46.70;;;;;;5011788;28;20037;-70
2022/05/12 02:57:06;;;;;;;2.83;2.53;;;20.50;47.20;;;;;;5011319;28;20076;-68
2022/05/12 02:59:32;;;;;;;5.60;2.53;;;20.60;46.70;;;;;;5011667;28;20105;-70
2022/05/12 03:01:59;;;;;;;4.40;2.50;;;20.60;46.60;;;;;;5011714;28;20439;-69
2022/05/12 03:04:26;;;;;;;4.55;2.22;;;20.60;46.60;;;;;;5011598;28;20030;-71
2022/05/12 03:06:51;;;;;;;5.93;2.63;;;20.60;46.50;;;;;;4994059;28;20480;-70
2022/05/12 03:09:18;;;;;;;6.45;2.30;;;20.60;46.90;;;;;;5011561;28;20040;-69
2022/05/12 03:11:43;;;;;;;5.35;2.70;;;20.50;46.80;;;;;;5011526;28;20152;-70
2022/05/12 03:14:09;;;;;;;3.70;2.47;;;20.50;47.10;;;;;;5011427;28;20074;-70
2022/05/12 03:16:35;;;;;;;5.22;2.55;;;20.50;47.00;;;;;;5011635;28;20026;-70
2022/05/12 03:19:01;;;;;;;4.55;2.58;;;20.60;46.50;;;;;;5011284;28;20026;-69
2022/05/12 03:21:26;;;;;;;4.10;2.55;;;20.70;46.60;;;;;;5011672;28;20026;-70
2022/05/12 03:23:52;;;;;;;7.63;2.65;;;20.70;46.60;;;;;;5011300;28;20104;-70
2022/05/12 03:26:18;;;;;;;4.55;2.70;;;20.70;46.60;;;;;;5012558;28;20396;-70
2022/05/12 03:28:44;;;;;;;11.48;2.63;;;20.70;46.50;;;;;;5015111;28;20022;-70
2022/05/12 03:31:10;;;;;;;6.97;2.30;;;20.80;46.10;;;;;;5015134;28;20034;-70
2022/05/12 03:33:37;;;;;;;5.65;2.40;;;20.70;46.20;;;;;;5015097;28;20443;-71
2022/05/12 03:36:04;;;;;;;5.95;2.53;;;20.70;46.50;;;;;;5014968;28;20037;-70
2022/05/12 03:38:30;;;;;;;6.47;2.60;;;20.60;46.80;;;;;;5022970;28;20033;-70
2022/05/12 03:40:56;;;;;;;5.70;2.60;;;20.60;46.90;;;;;;5034585;28;20472;-70
2022/05/12 03:46:07;;;;;;;6.47;2.65;;;20.70;47.10;;;;;;5035171;28;20036;-70
2022/05/12 03:48:36;;;;;;;5.55;2.35;;;20.70;47.20;;;;;;5034513;28;20030;-71
2022/05/12 03:51:02;;;;;;;5.60;2.70;;;20.80;46.60;;;;;;5034717;28;20044;-69
2022/05/12 03:53:28;;;;;;;6.97;2.47;;;20.90;46.40;;;;;;5034596;28;20041;-70
2022/05/12 03:55:54;;;;;;;3.75;2.75;;;21.10;46.00;;;;;;5034536;28;20479;-70
2022/05/12 03:58:20;;;;;;;6.38;2.40;;;21.50;45.50;;;;;;5034402;28;20037;-70
2022/05/12 04:00:48;;;;;;;5.47;2.47;;;22.00;43.90;;;;;;5034623;28;20029;-70
2022/05/12 04:03:14;;;;;;;5.20;2.40;;;22.40;43.50;;;;;;5016594;28;20030;-71
2022/05/12 04:05:40;;;;;;;5.90;2.53;;;22.80;42.60;;;;;;5034495;28;20070;-70
2022/05/12 04:08:06;;;;;;;3.35;2.35;;;22.90;42.00;;;;;;5034175;28;20037;-71
2022/05/12 04:10:32;;;;;;;6.68;2.55;;;23.20;41.60;;;;;;5034333;28;20052;-69
2022/05/12 04:12:58;;;;;;;8.80;2.78;;;23.80;40.30;;;;;;5034386;28;20029;-70
2022/05/12 04:15:24;;;;;;;13.93;2.58;;;24.20;39.60;;;;;;5034265;28;20026;-70
2022/05/12 04:17:59;;;;;;;9.10;2.83;;;24.70;38.50;;;;;;5033599;28;20129;-71
2022/05/12 04:20:26;;;;;;;3.15;1.85;;;25.20;37.60;;;;;;5033839;28;20029;-70
2022/05/12 04:22:53;;;;;;;11.65;2.28;;;25.80;36.40;;;;;;5033796;28;20040;-70
2022/05/12 04:25:19;;;;;;;6.85;2.15;;;26.00;35.90;;;;;;5016125;28;20036;-70
2022/05/12 04:27:45;;;;;;;6.97;2.55;;;;;;;;;;5033578;28;20403;-70
2022/05/12 04:30:12;;;;;;;4.28;1.85;;;27.00;34.20;;;;;;5033948;28;20030;-70
2022/05/12 04:32:39;;;;;;;7.07;2.35;;;27.10;33.80;;;;;;5033514;28;20076;-70
2022/05/12 04:35:12;;;;;;;14.07;5.97;;;27.30;33.90;;;;;;5033519;28;20021;-70
2022/05/12 04:37:47;;;;;;;9.20;3.55;;;27.50;33.90;;;;;;5032903;28;20017;-72
2022/05/12 04:40:18;;;;;;;9.60;5.15;;;27.80;33.30;;;;;;5033805;28;20495;-70
2022/05/12 04:42:46;;;;;;;13.23;6.10;;;28.20;32.60;;;;;;5033481;28;20100;-70
2022/05/12 04:45:12;;;;;;;4.20;2.33;;;28.60;32.30;;;;;;5033169;28;20031;-70
2022/05/12 04:47:39;;;;;;;8.68;2.65;;;28.00;33.00;;;;;;5032938;28;20075;-71
2022/05/12 04:50:07;;;;;;;5.22;2.28;;;26.90;34.70;;;;;;5033308;28;20095;-70
2022/05/12 04:52:33;;;;;;;14.35;2.70;;;26.50;35.90;;;;;;5033313;28;20104;-69
2022/05/12 04:54:58;;;;;;;8.65;2.65;;;25.90;37.50;;;;;;5032521;28;20061;-70
2022/05/12 04:57:24;;;;;;;7.15;2.63;;;24.60;40.30;;;;;;5032935;28;20546;-70
2022/05/12 04:59:51;;;;;;;14.30;3.50;;;24.90;40.50;;;;;;5033142;28;20511;-69
2022/05/12 05:02:17;;;;;;;12.55;2.88;;;25.50;39.70;;;;;;5013250;28;20017;-70
2022/05/12 05:04:43;;;;;;;5.97;2.63;;;26.30;38.40;;;;;;5013313;28;20021;-70
2022/05/12 05:07:10;;;;;;;9.57;2.80;;;26.70;37.80;;;;;;5030642;28;20022;-70
2022/05/12 05:09:36;;;;;;;12.88;2.88;;;27.00;37.30;;;;;;5030889;28;20036;-71
2022/05/12 05:12:02;;;;;;;9.55;2.58;;;27.40;36.80;;;;;;5030794;28;20025;-70
2022/05/12 05:14:28;;;;;;;5.35;2.30;;;28.00;35.80;;;;;;5012821;28;20044;-71
2022/05/12 05:16:53;;;;;;;14.07;2.72;;;28.20;35.70;;;;;;5031760;28;20049;-70
2022/05/12 05:19:19;;;;;;;17.42;3.30;;;28.60;34.90;;;;;;5032134;28;20109;-70
2022/05/12 05:21:45;;;;;;;6.68;2.45;;;27.50;36.60;;;;;;5032882;28;20490;-71
2022/05/12 05:24:10;;;;;;;6.97;2.13;;;26.40;38.70;;;;;;5032138;28;20052;-70
2022/05/12 05:26:36;;;;;;;10.20;2.95;;;25.20;41.10;;;;;;5032368;28;20025;-71
2022/05/12 05:29:01;;;;;;;6.45;2.47;;;24.40;42.90;;;;;;5032534;28;20506;-71
2022/05/12 05:31:28;;;;;;;5.05;2.20;;;23.70;44.80;;;;;;5032221;28;20112;-70
2022/05/12 05:33:53;;;;;;;9.35;2.40;;;23.30;45.90;;;;;;5032290;28;20029;-68
2022/05/12 05:36:19;;;;;;;5.47;2.33;;;23.00;46.70;;;;;;5032406;28;20028;-70
2022/05/12 05:38:45;;;;;;;7.78;2.60;;;23.00;47.20;;;;;;5025743;28;20029;-70
2022/05/12 05:41:11;;;;;;;6.40;2.55;;;22.90;47.40;;;;;;5012462;28;20067;-71
2022/05/12 05:43:38;;;;;;;7.55;2.78;;;22.70;48.00;;;;;;5012338;28;20112;-71
2022/05/12 05:46:04;;;;;;;11.82;2.55;;;22.50;48.90;;;;;;4994780;28;20026;-71
2022/05/12 05:48:29;;;;;;;11.15;2.40;;;22.30;49.30;;;;;;4993960;28;20044;-70
2022/05/12 05:53:39;;;;;;;7.38;2.70;;;22.60;49.40;;;;;;5012316;28;20045;-70
2022/05/12 05:56:07;;;;;;;7.80;2.30;;;;;;;;;;5012164;28;20432;-70
2022/05/12 05:58:33;;;;;;;13.68;2.90;;;;;;;;;;5011641;28;20080;-70
2022/05/12 06:00:59;;;;;;;6.05;2.65;;;24.30;44.60;;;;;;5015544;28;20034;-70
2022/05/12 06:03:25;;;;;;;14.80;6.72;;;24.10;45.30;;;;;;4994473;28;20022;-70
2022/05/12 06:05:51;;;;;;;18.23;7.30;;;24.30;44.70;;;;;;5012147;28;20030;-70
2022/05/12 06:08:20;;;;;;;20.00;9.45;;;24.20;44.50;;;;;;5011808;28;20030;-70
2022/05/12 06:10:46;;;;;;;20.88;9.32;;;23.60;45.70;;;;;;5012415;28;20022;-70
2022/05/12 06:13:12;;;;;;;39.33;16.65;;;23.30;46.20;;;;;;4994386;28;20434;-70
2022/05/12 06:15:39;;;;;;;110.40;57.58;;;22.80;46.90;;;;;;4994539;28;20022;-69
2022/05/12 06:18:10;;;;;;;19.95;8.38;;;22.50;48.50;;;;;;4998197;28;20030;-69
2022/05/12 06:20:37;;;;;;;6.20;3.30;;;22.00;49.10;;;;;;5012691;28;20014;-70
2022/05/12 06:23:02;;;;;;;9.93;3.10;;;22.00;49.50;;;;;;5037737;22;20045;-72
2022/05/12 06:25:28;;;;;;;6.90;2.67;;;22.10;49.70;;;;;;5033149;28;20037;-72
2022/05/12 06:27:54;;;;;;;5.88;2.58;;;22.50;48.30;;;;;;5032356;28;20170;-71
2022/05/12 06:30:20;;;;;;;4.30;2.10;;;22.50;48.80;;;;;;5015280;28;20487;-71
2022/05/12 06:32:46;;;;;;;9.68;2.55;;;22.60;48.80;;;;;;5032586;28;20026;-71
2022/05/12 06:35:16;;;;;;;5.82;2.22;;;22.70;48.30;;;;;;5032705;28;20482;-72
2022/05/12 06:37:42;;;;;;;4.70;2.40;;;22.90;48.10;;;;;;5032469;28;20014;-71
2022/05/12 06:40:08;;;;;;;5.75;2.13;;;23.00;47.80;;;;;;5032248;28;20032;-71
2022/05/12 06:42:35;;;;;;;4.53;1.92;;;23.00;47.60;;;;;;5010273;28;20468;-71
2022/05/12 06:45:01;;;;;;;5.03;1.63;;;23.10;47.60;;;;;;5030744;28;20029;-71
2022/05/12 06:47:27;;;;;;;9.45;1.60;;;23.50;45.90;;;;;;5032049;28;20079;-72
2022/05/12 06:49:53;;;;;;;20.63;2.17;;;23.20;43.20;;;;;;5032140;28;20092;-70
2022/05/12 06:52:19;;;;;;;8.30;1.40;;;22.70;44.00;;;;;;5031824;28;20097;-71
2022/05/12 06:54:45;;;;;;;6.32;1.35;;;22.30;43.40;;;;;;5031993;28;20034;-71
2022/05/12 06:57:18;;;;;;;14.90;1.73;;;22.00;43.30;;;;;;5031276;28;20112;-70
2022/05/12 06:59:43;;;;;;;5.72;1.00;;;21.50;44.50;;;;;;5032054;28;20021;-70
2022/05/12 07:02:09;;;;;;;4.25;1.02;;;21.30;45.50;;;;;;5035793;28;20025;-72
2022/05/12 07:04:34;;;;;;;3.67;1.55;;;21.50;45.70;;;;;;5035553;28;20653;-71
2022/05/12 07:07:00;;;;;;;7.75;1.13;;;21.50;44.80;;;;;;5035228;28;20030;-72
2022/05/12 07:09:26;;;;;;;7.95;1.23;;;21.50;44.50;;;;;;5035370;28;20025;-71
2022/05/12 07:11:53;;;;;;;8.05;1.10;;;21.40;45.00;;;;;;5036051;28;20029;-71
2022/05/12 07:14:21;;;;;;;6.25;0.98;;;21.60;44.80;;;;;;5036399;28;20025;-71
2022/05/12 07:16:47;;;;;;;5.38;1.27;;;22.10;43.50;;;;;;5019708;28;20025;-71
2022/05/12 07:19:15;;;;;;;3.08;0.80;;;22.60;42.30;;;;;;5018978;28;20072;-71
2022/05/12 07:27:16;;;;;;;2.58;0.70;;;25.70;37.20;;;;;;5035106;28;20032;-71
2022/05/12 07:29:42;;;;;;;4.00;1.30;;;25.40;36.90;;;;;;5035097;28;20049;-73
2022/05/12 07:32:11;;;;;;;2.90;0.80;;;25.00;37.50;;;;;;5034966;28;20100;-72
2022/05/12 07:34:37;;;;;;;4.18;0.77;;;24.90;38.30;;;;;;5034876;28;20025;-72
2022/05/12 07:37:03;;;;;;;6.90;0.93;;;25.20;37.60;;;;;;5033075;28;20106;-72
2022/05/12 07:39:30;;;;;;;7.55;1.13;;;25.20;37.10;;;;;;5018358;28;20022;-71
2022/05/12 07:41:57;;;;;;;12.27;1.23;;;25.20;37.20;;;;;;5015966;28;20041;-71
2022/05/12 07:44:31;;;;;;;6.05;1.00;;;25.10;37.00;;;;;;5016987;28;20026;-71
2022/05/12 07:47:00;;;;;;;5.82;1.45;;;25.40;36.50;;;;;;5015525;28;20034;-71
2022/05/12 07:49:28;;;;;;;8.18;0.90;;;25.70;36.30;;;;;;4997646;28;20056;-72
2022/05/12 07:51:54;;;;;;;2.50;0.70;;;26.90;35.20;;;;;;5015621;28;20506;-72
2022/05/12 07:54:20;;;;;;;22.40;1.98;;;28.00;31.50;;;;;;5015210;28;20060;-71
2022/05/12 07:56:49;;;;;;;6.00;0.90;;;28.40;29.10;;;;;;5015973;28;20452;-71
2022/05/12 07:59:14;;;;;;;6.05;1.20;;;29.70;27.80;;;;;;5015383;28;20049;-72
2022/05/12 08:01:40;;;;;;;13.20;1.33;;;30.10;27.30;;;;;;5015240;28;20434;-71
2022/05/12 08:04:05;;;;;;;6.50;0.93;;;29.60;27.90;;;;;;5015406;28;20026;-71
2022/05/12 08:06:32;;;;;;;7.47;0.70;;;29.60;28.10;;;;;;5015191;28;20093;-71
2022/05/12 08:08:57;;;;;;;6.47;1.15;;;29.50;28.00;;;;;;5015602;28;20076;-72
2022/05/12 08:11:24;;;;;;;3.58;0.70;;;29.20;28.90;;;;;;5014580;28;20026;-73
2022/05/12 08:13:50;;;;;;;4.85;0.95;;;28.70;29.20;;;;;;5014730;28;20037;-71
2022/05/12 08:16:21;;;;;;;5.70;0.93;;;28.50;30.00;;;;;;5014554;28;20044;-71
2022/05/12 08:18:49;;;;;;;4.18;0.80;;;28.90;29.40;;;;;;5014927;28;20056;-72
2022/05/12 08:21:17;;;;;;;4.47;0.85;;;29.00;29.70;;;;;;5017580;28;20029;-72
2022/05/12 08:23:45;;;;;;;6.68;0.82;;;28.30;31.00;;;;;;5035310;28;20495;-71
2022/05/12 08:26:11;;;;;;;7.13;0.90;;;27.50;32.00;;;;;;5035522;28;20037;-72
2022/05/12 08:28:37;;;;;;;3.63;1.10;;;27.20;33.60;;;;;;5037435;28;20033;-71
2022/05/12 08:31:04;;;;;;;4.90;1.05;;;27.00;33.90;;;;;;5035518;28;20029;-72
2022/05/12 08:33:29;;;;;;;7.30;1.55;;;26.60;34.10;;;;;;5034404;28;20033;-72
2022/05/12 08:35:55;;;;;;;2.60;0.70;;;26.20;35.20;;;;;;5033999;28;20518;-72
2022/05/12 08:38:22;;;;;;;5.47;0.90;;;26.30;35.20;;;;;;5033838;28;20032;-72
2022/05/12 08:40:59;;;;;;;6.72;1.00;;;26.80;34.80;;;;;;5033827;28;20541;-72
2022/05/12 08:43:36;;;;;;;5.55;1.13;;;27.00;34.10;;;;;;5034060;28;20039;-71
2022/05/12 08:46:11;;;;;;;6.78;1.08;;;26.20;35.00;;;;;;5033722;28;20029;-71
2022/05/12 08:48:41;;;;;;;7.28;0.88;;;26.20;36.00;;;;;;5015464;28;20026;-71
2022/05/12 08:51:08;;;;;;;11.63;1.77;;;27.00;34.70;;;;;;5033608;28;20025;-71
2022/05/12 08:53:43;;;;;;;5.45;1.40;;;26.80;32.70;;;;;;5033562;28;20030;-72
2022/05/12 08:56:09;;;;;;;5.82;1.27;;;26.70;33.40;;;;;;5033221;28;20463;-71
2022/05/12 08:58:37;;;;;;;5.40;1.35;;;27.20;31.90;;;;;;5033080;28;20076;-71
2022/05/12 09:01:21;;;;;;;2.83;0.98;;;27.90;33.20;;;;;;5033347;28;20439;-71
2022/05/12 09:04:17;;;;;;;5.63;1.30;;;28.80;31.80;;;;;;5033043;28;20052;-71
2022/05/12 09:07:10;;;;;;;9.45;1.38;;;28.30;31.60;;;;;;5033265;28;20048;-71
2022/05/12 09:10:14;;;;;;;6.22;0.90;;;27.80;32.10;;;;;;5033285;28;20021;-71
2022/05/12 09:12:46;;;;;;;4.32;1.00;;;28.30;31.70;;;;;;5029314;28;20033;-71
2022/05/12 09:15:17;;;;;;;5.45;1.17;;;27.90;32.00;;;;;;5032908;28;20368;-71
2022/05/12 09:17:49;;;;;;;2.63;0.93;;;27.60;32.50;;;;;;5014811;28;20049;-71
2022/05/12 09:20:15;;;;;;;3.75;0.80;;;27.70;32.60;;;;;;5033448;28;20017;-71
2022/05/12 09:22:42;;;;;;;7.82;1.70;;;28.00;31.90;;;;;;5032531;28;20024;-72
2022/05/12 09:25:10;;;;;;;7.50;1.08;;;28.00;31.20;;;;;;5032908;28;20068;-72
2022/05/12 09:27:38;;;;;;;3.60;1.23;;;27.10;33.30;;;;;;5032507;28;20071;-71
2022/05/12 09:30:09;;;;;;;6.97;1.27;;;26.80;34.10;;;;;;5032828;28;20227;-71
2022/05/12 09:32:37;;;;;;;6.75;1.15;;;27.10;33.60;;;;;;5032926;28;20025;-72
2022/05/12 09:35:27;;;;;;;5.15;0.93;;;27.40;33.00;;;;;;5032442;28;20040;-72
2022/05/12 09:37:53;;;;;;;5.65;0.85;;;27.90;32.30;;;;;;5032560;28;20109;-72
2022/05/12 09:40:27;;;;;;;3.75;0.90;;;28.00;31.80;;;;;;5032861;28;20052;-71
2022/05/12 09:42:57;;;;;;;5.47;1.17;;;28.00;31.20;;;;;;5032866;28;20471;-72
2022/05/12 09:45:26;;;;;;;4.35;0.68;;;28.50;30.20;;;;;;5032759;28;20030;-73
2022/05/12 09:48:12;;;;;;;3.38;0.70;;;28.30;29.70;;;;;;5032512;28;20290;-71
2022/05/12 09:50:38;;;;;;;8.93;0.80;;;27.70;29.70;;;;;;5032647;28;20029;-71
2022/05/12 09:53:07;;;;;;;7.65;1.20;;;27.30;31.00;;;;;;5014864;28;20484;-72
2022/05/12 09:55:38;;;;;;;7.32;0.90;;;27.40;30.00;;;;;;5014454;28;20506;-71
2022/05/12 09:58:25;;;;;;;5.45;1.27;;;26.70;31.40;;;;;;5032262;28;20025;-72
2022/05/12 10:01:19;;;;;;;3.95;1.02;;;26.10;32.10;;;;;;5032649;28;20028;-71
2022/05/12 10:09:30;;;;;;;4.35;1.08;;;27.50;28.90;;;;;;5032875;28;20103;-73
2022/05/12 10:12:30;;;;;;;3.25;0.80;;;26.60;30.40;;;;;;5033101;28;20025;-71
2022/05/12 10:15:19;;;;;;;8.90;0.70;;;26.30;30.40;;;;;;5032706;28;20032;-71
2022/05/12 10:18:05;;;;;;;4.60;0.90;;;25.90;30.60;;;;;;5032663;28;20025;-71
2022/05/12 10:20:36;;;;;;;7.95;0.80;;;25.80;31.20;;;;;;5026937;28;20017;-70
2022/05/12 10:23:13;;;;;;;5.05;0.88;;;25.30;33.10;;;;;;5032056;28;20024;-71
2022/05/12 10:25:56;;;;;;;5.78;0.70;;;25.20;33.10;;;;;;5031681;28;20029;-71
2022/05/12 10:28:48;;;;;;;3.90;0.55;;;25.00;34.80;;;;;;5031530;28;20044;-71
2022/05/12 10:31:35;;;;;;;1.33;0.50;;;24.70;33.10;;;;;;5031741;28;20097;-71
2022/05/12 10:34:13;;;;;;;2.95;0.95;;;23.80;34.10;;;;;;5031780;28;20075;-72
2022/05/12 10:37:05;;;;;;;3.22;0.75;;;23.50;35.70;;;;;;5031478;28;20036;-71
2022/05/12 10:39:55;;;;;;;4.25;0.80;;;23.20;34.10;;;;;;5013597;28;20541;-71
2022/05/12 10:42:45;;;;;;;6.45;0.88;;;22.40;35.70;;;;;;5031341;28;20022;-72
2022/05/12 10:45:21;;;;;;;4.68;0.90;;;22.60;37.60;;;;;;5031444;28;20045;-71
2022/05/12 10:48:01;;;;;;;5.53;1.38;;;23.20;38.40;;;;;;5031114;28;20073;-71
2022/05/12 10:50:57;;;;;;;5.95;1.70;;;23.70;36.40;;;;;;5031659;28;20018;-71
2022/05/12 10:53:41;;;;;;;1.63;0.70;;;24.00;36.40;;;;;;5020663;28;20068;-71
2022/05/12 10:56:24;;;;;;;4.72;0.85;;;24.20;36.20;;;;;;5031406;28;20033;-71
2022/05/12 10:59:08;;;;;;;4.90;0.85;;;23.70;34.80;;;;;;5013354;28;20052;-71
2022/05/12 11:01:40;;;;;;;1.65;0.63;;;23.70;37.40;;;;;;5031411;28;20357;-71
2022/05/12 11:04:09;;;;;;;;;;;24.10;37.30;;;;;;5031659;28;20075;-71
2022/05/12 11:06:52;;;;;;;5.32;0.90;;;24.40;35.80;;;;;;5031129;28;19905;-71
2022/05/12 11:09:32;;;;;;;4.32;1.25;;;24.40;36.60;;;;;;5031122;28;20025;-71
2022/05/12 11:12:05;;;;;;;5.32;1.02;;;24.40;35.80;;;;;;5031293;28;20033;-71
2022/05/12 11:14:36;;;;;;;4.18;1.15;;;24.40;36.90;;;;;;5013577;28;20116;-71
2022/05/12 11:17:42;;;;;;;3.30;0.93;;;24.50;35.60;;;;;;5013385;28;20030;-70
2022/05/12 11:20:25;;;;;;;6.60;0.70;;;24.90;35.40;;;;;;4950910;29;20035;-71
2022/05/12 11:23:06;;;;;;;2.22;0.98;;;25.00;35.90;;;;;;4950682;29;20023;-71
2022/05/12 11:26:00;;;;;;;7.13;1.20;;;24.60;34.90;;;;;;5007281;28;20048;-71
2022/05/12 11:31:56;;;;;;;2.95;1.15;;;23.60;36.80;;;;;;5031563;28;20451;-72
2022/05/12 11:34:24;;;;;;;5.03;1.27;;;23.30;38.40;;;;;;5031450;28;20024;-71
2022/05/12 11:36:53;;;;;;;2.67;1.02;;;23.00;38.80;;;;;;5030886;28;20017;-71
2022/05/12 11:39:54;;;;;;;2.08;0.98;;;23.40;38.80;;;;;;5030752;28;20022;-71
2022/05/12 11:44:23;;;;;;;3.08;0.98;;;23.90;37.90;;;;;;5030951;28;20021;-71
2022/05/12 11:45:41;;;;;;;4.72;0.90;;;24.00;37.90;;;;;;5030927;28;20077;-71
2022/05/12 11:48:25;;;;;;;7.28;0.90;;;24.10;37.50;;;;;;5033241;28;20028;-71
2022/05/12 11:51:03;;;;;;;4.05;0.70;;;24.20;36.80;;;;;;5017042;28;20038;-72
2022/05/12 11:53:53;;;;;;;3.67;1.10;;;24.10;36.80;;;;;;5034927;28;20459;-72
2022/05/12 11:56:40;;;;;;;4.88;1.35;;;23.90;37.30;;;;;;5016968;28;20514;-72
2022/05/12 11:59:16;;;;;;;5.72;1.08;;;23.60;36.90;;;;;;5034236;28;20055;-71
2022/05/12 12:01:41;;;;;;;7.75;1.45;;;23.50;37.90;;;;;;5034384;28;20116;-71
2022/05/12 12:04:13;;;;;;;4.05;1.08;;;23.40;37.90;;;;;;5034426;28;20109;-71
2022/05/12 12:06:57;;;;;;;2.08;1.00;;;23.20;38.10;;;;;;5016426;28;20127;-73
2022/05/12 12:09:28;;;;;;;3.88;1.20;;;23.30;39.00;;;;;;5033775;28;20434;-72
2022/05/12 12:11:54;;;;;;;4.18;0.93;;;23.20;38.10;;;;;;5034233;28;20044;-72
2022/05/12 12:14:42;;;;;;;3.90;0.93;;;23.20;39.40;;;;;;5016331;28;20029;-72
2022/05/12 12:17:10;;;;;;;3.15;0.90;;;23.30;38.90;;;;;;5033638;28;20557;-72
2022/05/12 12:19:49;;;;;;;4.65;0.77;;;23.40;38.60;;;;;;5016087;28;20021;-71
2022/05/12 12:22:21;;;;;;;3.08;0.93;;;23.30;37.50;;;;;;5001749;28;20036;-71
2022/05/12 12:25:16;;;;;;;5.63;1.27;;;23.00;38.40;;;;;;5051211;22;20053;-71
2022/05/12 12:28:10;;;;;;;5.28;0.70;;;22.80;39.00;;;;;;5033163;28;20025;-71
2022/05/12 12:30:47;;;;;;;4.13;0.90;;;22.30;39.60;;;;;;5033905;28;20034;-70
2022/05/12 12:33:18;;;;;;;3.80;0.90;;;22.30;40.30;;;;;;5033877;28;20029;-69
2022/05/12 12:36:15;;;;;;;2.88;0.85;;;22.60;39.80;;;;;;5033505;28;20029;-70
2022/05/12 12:38:46;;;;;;;6.38;0.90;;;22.60;38.30;;;;;;5033631;28;20025;-70
2022/05/12 12:41:17;;;;;;;;;;;22.50;39.50;;;;;;5016141;28;20022;-68
2022/05/12 12:44:01;;;;;;;3.60;0.90;;;22.50;38.80;;;;;;5015635;28;20321;-70
2022/05/12 12:46:35;;;;;;;4.03;0.93;;;22.00;39.60;;;;;;5033168;28;20112;-71
2022/05/12 12:49:17;;;;;;;5.25;1.10;;;21.80;38.80;;;;;;5032880;28;20044;-71
2022/05/12 12:51:43;;;;;;;4.25;1.00;;;21.90;40.40;;;;;;5015755;28;20087;-70
2022/05/12 12:57:17;;;;;;;5.30;1.10;;;22.80;38.30;;;;;;5032848;28;20036;-71
2022/05/12 12:59:50;;;;;;;6.78;1.10;;;23.30;36.90;;;;;;5032510;28;20068;-69
2022/05/12 13:02:32;;;;;;;4.45;1.20;;;23.40;36.10;;;;;;5032732;28;20034;-70
2022/05/12 13:05:07;;;;;;;8.45;0.90;;;23.70;37.60;;;;;;5015004;28;20102;-70
2022/05/12 13:07:34;;;;;;;5.03;0.90;;;24.00;36.60;;;;;;5032638;28;20064;-70
2022/05/12 13:10:04;;;;;;;3.22;0.93;;;24.20;35.00;;;;;;5033172;28;20100;-70
2022/05/12 13:12:30;;;;;;;5.38;1.98;;;24.20;35.00;;;;;;5032829;28;20032;-70
2022/05/12 13:15:00;;;;;;;1.88;0.85;;;24.20;34.40;;;;;;5032741;28;20060;-71
2022/05/12 13:17:34;;;;;;;2.90;0.98;;;24.00;34.10;;;;;;5031840;28;20515;-71
2022/05/12 13:20:01;;;;;;;4.70;1.10;;;23.70;35.10;;;;;;5032884;28;20029;-70
2022/05/12 13:22:30;;;;;;;5.35;1.05;;;23.80;34.00;;;;;;5032220;28;20164;-69
2022/05/12 13:24:56;;;;;;;4.47;1.20;;;23.80;34.40;;;;;;5032394;28;20522;-70
2022/05/12 13:27:30;;;;;;;3.45;0.82;;;24.00;33.50;;;;;;5031998;28;20109;-71